sensor_id;sensor_type;location;lat;lon;timestamp;P1;durP1;ratioP1;P2;durP2;ratioP2
17283;SDS011;8760;52.248;20.952;2023-05-27T00:01:49;10.47;;;3.27;;
17283;SDS011;8760;52.248;20.952;2023-05-27T00:04:16;8.40;;;2.63;;
17283;SDS011;8760;52.248;20.952;2023-05-27T00:06:43;7.27;;;2.80;;
17283;SDS011;8760;52.248;20.952;2023-05-27T00:09:10;5.90;;;2.37;;
17283;SDS011;8760;52.248;20.952;2023-05-27T00:11:37;6.07;;;2.87;;
17283;SDS011;8760;52.248;20.952;2023-05-27T00:14:05;10.57;;;2.80;;
17283;SDS011;8760;52.248;20.952;2023-05-27T00:16:32;8.57;;;3.00;;
17283;SDS011;8760;52.248;20.952;2023-05-27T00:19:00;11.43;;;3.17;;
17283;SDS011;8760;52.248;20.952;2023-05-27T00:21:27;7.90;;;2.53;;
17283;SDS011;8760;52.248;20.952;2023-05-27T00:23:54;9.30;;;2.70;;
17283;SDS011;8760;52.248;20.952;2023-05-27T00:26:22;8.20;;;2.90;;
17283;SDS011;8760;52.248;20.952;2023-05-27T00:28:49;11.73;;;2.93;;
17283;SDS011;8760;52.248;20.952;2023-05-27T00:31:17;7.83;;;2.77;;
17283;SDS011;8760;52.248;20.952;2023-05-27T00:33:44;9.83;;;2.87;;
17283;SDS011;8760;52.248;20.952;2023-05-27T00:36:11;8.20;;;2.90;;
17283;SDS011;8760;52.248;20.952;2023-05-27T00:38:38;9.10;;;2.63;;
17283;SDS011;8760;52.248;20.952;2023-05-27T00:41:05;7.77;;;2.80;;
17283;SDS011;8760;52.248;20.952;2023-05-27T00:43:33;9.83;;;3.23;;
17283;SDS011;8760;52.248;20.952;2023-05-27T00:46:00;11.53;;;2.90;;
17283;SDS011;8760;52.248;20.952;2023-05-27T00:48:28;8.97;;;2.50;;
17283;SDS011;8760;52.248;20.952;2023-05-27T00:50:55;10.00;;;3.13;;
17283;SDS011;8760;52.248;20.952;2023-05-27T00:53:22;9.17;;;2.90;;
17283;SDS011;8760;52.248;20.952;2023-05-27T00:55:50;9.67;;;3.17;;
17283;SDS011;8760;52.248;20.952;2023-05-27T00:58:19;11.47;;;3.20;;
17283;SDS011;8760;52.248;20.952;2023-05-27T01:00:46;8.03;;;2.57;;
17283;SDS011;8760;52.248;20.952;2023-05-27T01:03:13;10.43;;;3.03;;
17283;SDS011;8760;52.248;20.952;2023-05-27T01:05:43;12.20;;;3.57;;
17283;SDS011;8760;52.248;20.952;2023-05-27T01:08:13;9.07;;;2.60;;
17283;SDS011;8760;52.248;20.952;2023-05-27T01:10:50;12.90;;;3.00;;
17283;SDS011;8760;52.248;20.952;2023-05-27T01:13:25;9.10;;;2.70;;
17283;SDS011;8760;52.248;20.952;2023-05-27T01:15:57;8.93;;;3.10;;
17283;SDS011;8760;52.248;20.952;2023-05-27T01:18:25;10.73;;;2.93;;
17283;SDS011;8760;52.248;20.952;2023-05-27T01:20:58;10.93;;;3.37;;
17283;SDS011;8760;52.248;20.952;2023-05-27T01:23:30;10.50;;;3.23;;
17283;SDS011;8760;52.248;20.952;2023-05-27T01:25:58;10.57;;;3.63;;
17283;SDS011;8760;52.248;20.952;2023-05-27T01:28:25;12.40;;;3.37;;
17283;SDS011;8760;52.248;20.952;2023-05-27T01:30:52;10.90;;;3.30;;
17283;SDS011;8760;52.248;20.952;2023-05-27T01:33:23;9.43;;;3.20;;
17283;SDS011;8760;52.248;20.952;2023-05-27T01:35:56;8.30;;;2.90;;
17283;SDS011;8760;52.248;20.952;2023-05-27T01:38:32;8.13;;;3.07;;
17283;SDS011;8760;52.248;20.952;2023-05-27T01:41:00;9.40;;;3.10;;
17283;SDS011;8760;52.248;20.952;2023-05-27T01:43:27;11.27;;;3.30;;
17283;SDS011;8760;52.248;20.952;2023-05-27T01:45:54;10.83;;;3.47;;
17283;SDS011;8760;52.248;20.952;2023-05-27T01:48:21;12.07;;;3.50;;
17283;SDS011;8760;52.248;20.952;2023-05-27T01:50:48;12.87;;;2.97;;
17283;SDS011;8760;52.248;20.952;2023-05-27T01:53:15;12.57;;;3.40;;
17283;SDS011;8760;52.248;20.952;2023-05-27T01:55:43;8.17;;;2.77;;
17283;SDS011;8760;52.248;20.952;2023-05-27T01:58:10;13.13;;;3.60;;
17283;SDS011;8760;52.248;20.952;2023-05-27T02:00:37;11.90;;;3.17;;
17283;SDS011;8760;52.248;20.952;2023-05-27T02:03:04;9.67;;;3.00;;
17283;SDS011;8760;52.248;20.952;2023-05-27T02:05:32;8.97;;;3.00;;
17283;SDS011;8760;52.248;20.952;2023-05-27T02:08:00;15.67;;;3.63;;
17283;SDS011;8760;52.248;20.952;2023-05-27T02:10:27;10.33;;;3.10;;
17283;SDS011;8760;52.248;20.952;2023-05-27T02:12:56;10.90;;;3.30;;
17283;SDS011;8760;52.248;20.952;2023-05-27T02:15:23;11.10;;;3.10;;
17283;SDS011;8760;52.248;20.952;2023-05-27T02:17:51;12.97;;;3.43;;
17283;SDS011;8760;52.248;20.952;2023-05-27T02:20:20;9.97;;;2.83;;
17283;SDS011;8760;52.248;20.952;2023-05-27T02:22:47;10.40;;;2.70;;
17283;SDS011;8760;52.248;20.952;2023-05-27T02:25:15;11.13;;;3.07;;
17283;SDS011;8760;52.248;20.952;2023-05-27T02:27:42;11.60;;;3.23;;
17283;SDS011;8760;52.248;20.952;2023-05-27T02:30:15;8.13;;;2.97;;
17283;SDS011;8760;52.248;20.952;2023-05-27T02:32:42;8.83;;;3.30;;
17283;SDS011;8760;52.248;20.952;2023-05-27T02:35:09;9.57;;;3.23;;
17283;SDS011;8760;52.248;20.952;2023-05-27T02:37:38;13.73;;;3.23;;
17283;SDS011;8760;52.248;20.952;2023-05-27T02:40:05;12.33;;;3.03;;
17283;SDS011;8760;52.248;20.952;2023-05-27T02:42:34;13.80;;;3.47;;
17283;SDS011;8760;52.248;20.952;2023-05-27T02:45:01;12.47;;;3.13;;
17283;SDS011;8760;52.248;20.952;2023-05-27T02:47:29;11.63;;;3.03;;
17283;SDS011;8760;52.248;20.952;2023-05-27T02:49:56;9.67;;;3.00;;
17283;SDS011;8760;52.248;20.952;2023-05-27T02:52:23;12.07;;;3.20;;
17283;SDS011;8760;52.248;20.952;2023-05-27T02:54:50;12.50;;;3.40;;
17283;SDS011;8760;52.248;20.952;2023-05-27T02:57:17;10.03;;;3.07;;
17283;SDS011;8760;52.248;20.952;2023-05-27T02:59:45;8.47;;;3.07;;
17283;SDS011;8760;52.248;20.952;2023-05-27T03:02:11;11.33;;;3.30;;
17283;SDS011;8760;52.248;20.952;2023-05-27T03:04:40;13.57;;;3.50;;
17283;SDS011;8760;52.248;20.952;2023-05-27T03:07:07;10.77;;;3.33;;
17283;SDS011;8760;52.248;20.952;2023-05-27T03:09:33;12.20;;;3.50;;
17283;SDS011;8760;52.248;20.952;2023-05-27T03:12:01;9.13;;;2.87;;
17283;SDS011;8760;52.248;20.952;2023-05-27T03:14:27;10.67;;;3.20;;
17283;SDS011;8760;52.248;20.952;2023-05-27T03:16:54;12.00;;;3.67;;
17283;SDS011;8760;52.248;20.952;2023-05-27T03:19:21;12.33;;;3.13;;
17283;SDS011;8760;52.248;20.952;2023-05-27T03:21:50;15.27;;;3.60;;
17283;SDS011;8760;52.248;20.952;2023-05-27T03:24:17;14.63;;;3.70;;
17283;SDS011;8760;52.248;20.952;2023-05-27T03:26:44;11.47;;;3.50;;
17283;SDS011;8760;52.248;20.952;2023-05-27T03:29:10;10.33;;;3.27;;
17283;SDS011;8760;52.248;20.952;2023-05-27T03:31:37;10.07;;;3.37;;
17283;SDS011;8760;52.248;20.952;2023-05-27T03:34:05;8.97;;;3.10;;
17283;SDS011;8760;52.248;20.952;2023-05-27T03:36:31;12.30;;;3.73;;
17283;SDS011;8760;52.248;20.952;2023-05-27T03:39:01;9.27;;;3.27;;
17283;SDS011;8760;52.248;20.952;2023-05-27T03:41:29;9.47;;;3.23;;
17283;SDS011;8760;52.248;20.952;2023-05-27T03:43:56;11.23;;;3.30;;
17283;SDS011;8760;52.248;20.952;2023-05-27T03:46:23;9.53;;;3.03;;
17283;SDS011;8760;52.248;20.952;2023-05-27T03:48:49;10.67;;;3.60;;
17283;SDS011;8760;52.248;20.952;2023-05-27T03:51:17;10.77;;;3.33;;
17283;SDS011;8760;52.248;20.952;2023-05-27T03:53:46;9.13;;;3.17;;
17283;SDS011;8760;52.248;20.952;2023-05-27T03:56:14;15.93;;;3.63;;
17283;SDS011;8760;52.248;20.952;2023-05-27T03:58:41;12.33;;;3.63;;
17283;SDS011;8760;52.248;20.952;2023-05-27T04:01:08;10.07;;;3.27;;
17283;SDS011;8760;52.248;20.952;2023-05-27T04:03:35;12.43;;;3.27;;
17283;SDS011;8760;52.248;20.952;2023-05-27T04:06:02;16.73;;;3.77;;
17283;SDS011;8760;52.248;20.952;2023-05-27T04:08:30;11.20;;;3.20;;
17283;SDS011;8760;52.248;20.952;2023-05-27T04:10:57;11.90;;;3.30;;
17283;SDS011;8760;52.248;20.952;2023-05-27T04:13:25;10.93;;;3.27;;
17283;SDS011;8760;52.248;20.952;2023-05-27T04:15:52;10.00;;;3.13;;
17283;SDS011;8760;52.248;20.952;2023-05-27T04:18:21;10.90;;;3.20;;
17283;SDS011;8760;52.248;20.952;2023-05-27T04:20:48;8.93;;;2.93;;
17283;SDS011;8760;52.248;20.952;2023-05-27T04:23:17;9.03;;;3.00;;
17283;SDS011;8760;52.248;20.952;2023-05-27T04:25:44;11.57;;;3.13;;
17283;SDS011;8760;52.248;20.952;2023-05-27T04:28:11;16.37;;;3.00;;
17283;SDS011;8760;52.248;20.952;2023-05-27T04:30:39;10.23;;;3.33;;
17283;SDS011;8760;52.248;20.952;2023-05-27T04:33:06;11.30;;;3.23;;
17283;SDS011;8760;52.248;20.952;2023-05-27T04:35:33;12.80;;;2.90;;
17283;SDS011;8760;52.248;20.952;2023-05-27T04:38:00;13.63;;;3.67;;
17283;SDS011;8760;52.248;20.952;2023-05-27T04:40:27;9.40;;;2.93;;
17283;SDS011;8760;52.248;20.952;2023-05-27T04:42:54;9.67;;;3.00;;
17283;SDS011;8760;52.248;20.952;2023-05-27T04:45:21;8.97;;;2.80;;
17283;SDS011;8760;52.248;20.952;2023-05-27T04:47:50;9.53;;;3.10;;
17283;SDS011;8760;52.248;20.952;2023-05-27T04:50:16;9.73;;;3.37;;
17283;SDS011;8760;52.248;20.952;2023-05-27T04:52:43;8.97;;;3.00;;
17283;SDS011;8760;52.248;20.952;2023-05-27T04:55:10;10.80;;;2.77;;
17283;SDS011;8760;52.248;20.952;2023-05-27T04:57:37;10.10;;;3.23;;
17283;SDS011;8760;52.248;20.952;2023-05-27T05:00:06;9.43;;;3.33;;
17283;SDS011;8760;52.248;20.952;2023-05-27T05:02:48;9.17;;;3.07;;
17283;SDS011;8760;52.248;20.952;2023-05-27T05:05:25;6.37;;;2.60;;
17283;SDS011;8760;52.248;20.952;2023-05-27T05:07:53;9.03;;;3.10;;
17283;SDS011;8760;52.248;20.952;2023-05-27T05:10:20;9.07;;;2.57;;
17283;SDS011;8760;52.248;20.952;2023-05-27T05:12:47;8.53;;;2.83;;
17283;SDS011;8760;52.248;20.952;2023-05-27T05:15:14;10.30;;;2.87;;
17283;SDS011;8760;52.248;20.952;2023-05-27T05:17:41;10.10;;;2.50;;
17283;SDS011;8760;52.248;20.952;2023-05-27T05:20:10;5.13;;;2.63;;
17283;SDS011;8760;52.248;20.952;2023-05-27T05:22:38;9.43;;;2.90;;
17283;SDS011;8760;52.248;20.952;2023-05-27T05:25:05;6.20;;;3.03;;
17283;SDS011;8760;52.248;20.952;2023-05-27T05:27:32;10.23;;;2.33;;
17283;SDS011;8760;52.248;20.952;2023-05-27T05:29:59;7.10;;;2.30;;
17283;SDS011;8760;52.248;20.952;2023-05-27T05:32:26;7.87;;;2.40;;
17283;SDS011;8760;52.248;20.952;2023-05-27T05:34:52;7.10;;;2.70;;
17283;SDS011;8760;52.248;20.952;2023-05-27T05:37:21;6.60;;;2.40;;
17283;SDS011;8760;52.248;20.952;2023-05-27T05:39:48;6.63;;;2.50;;
17283;SDS011;8760;52.248;20.952;2023-05-27T05:42:15;4.40;;;2.27;;
17283;SDS011;8760;52.248;20.952;2023-05-27T05:44:42;6.80;;;2.87;;
17283;SDS011;8760;52.248;20.952;2023-05-27T05:47:09;7.37;;;2.50;;
17283;SDS011;8760;52.248;20.952;2023-05-27T05:49:36;7.03;;;2.53;;
17283;SDS011;8760;52.248;20.952;2023-05-27T05:52:03;7.70;;;3.20;;
17283;SDS011;8760;52.248;20.952;2023-05-27T05:54:31;7.47;;;2.53;;
17283;SDS011;8760;52.248;20.952;2023-05-27T05:56:59;4.87;;;2.30;;
17283;SDS011;8760;52.248;20.952;2023-05-27T05:59:27;7.90;;;2.27;;
17283;SDS011;8760;52.248;20.952;2023-05-27T06:01:54;5.83;;;2.87;;
17283;SDS011;8760;52.248;20.952;2023-05-27T06:04:21;7.97;;;3.10;;
17283;SDS011;8760;52.248;20.952;2023-05-27T06:06:47;9.43;;;2.50;;
17283;SDS011;8760;52.248;20.952;2023-05-27T06:09:16;5.23;;;2.10;;
17283;SDS011;8760;52.248;20.952;2023-05-27T06:11:44;7.37;;;2.47;;
17283;SDS011;8760;52.248;20.952;2023-05-27T06:14:11;4.93;;;2.77;;
17283;SDS011;8760;52.248;20.952;2023-05-27T06:16:38;4.70;;;2.00;;
17283;SDS011;8760;52.248;20.952;2023-05-27T06:19:05;9.63;;;2.60;;
17283;SDS011;8760;52.248;20.952;2023-05-27T06:21:32;4.90;;;2.40;;
17283;SDS011;8760;52.248;20.952;2023-05-27T06:23:59;4.57;;;1.97;;
17283;SDS011;8760;52.248;20.952;2023-05-27T06:26:26;2.80;;;1.80;;
17283;SDS011;8760;52.248;20.952;2023-05-27T06:28:54;4.77;;;2.37;;
17283;SDS011;8760;52.248;20.952;2023-05-27T06:31:21;4.78;;;2.03;;
17283;SDS011;8760;52.248;20.952;2023-05-27T06:33:48;4.32;;;2.72;;
17283;SDS011;8760;52.248;20.952;2023-05-27T06:36:15;7.17;;;2.17;;
17283;SDS011;8760;52.248;20.952;2023-05-27T06:38:43;6.47;;;2.27;;
17283;SDS011;8760;52.248;20.952;2023-05-27T06:41:10;4.05;;;2.13;;
17283;SDS011;8760;52.248;20.952;2023-05-27T06:43:37;7.32;;;2.05;;
17283;SDS011;8760;52.248;20.952;2023-05-27T06:46:06;5.88;;;2.42;;
17283;SDS011;8760;52.248;20.952;2023-05-27T06:48:32;6.53;;;2.00;;
17283;SDS011;8760;52.248;20.952;2023-05-27T06:50:59;7.00;;;2.03;;
17283;SDS011;8760;52.248;20.952;2023-05-27T06:53:26;6.28;;;1.90;;
17283;SDS011;8760;52.248;20.952;2023-05-27T06:55:53;6.72;;;2.50;;
17283;SDS011;8760;52.248;20.952;2023-05-27T06:58:21;6.95;;;2.28;;
17283;SDS011;8760;52.248;20.952;2023-05-27T07:00:47;6.43;;;2.30;;
17283;SDS011;8760;52.248;20.952;2023-05-27T07:03:16;5.63;;;1.90;;
17283;SDS011;8760;52.248;20.952;2023-05-27T07:05:43;4.43;;;1.98;;
17283;SDS011;8760;52.248;20.952;2023-05-27T07:08:09;4.15;;;1.67;;
17283;SDS011;8760;52.248;20.952;2023-05-27T07:10:38;2.40;;;1.73;;
17283;SDS011;8760;52.248;20.952;2023-05-27T07:13:05;5.55;;;2.03;;
17283;SDS011;8760;52.248;20.952;2023-05-27T07:15:32;3.10;;;1.90;;
17283;SDS011;8760;52.248;20.952;2023-05-27T07:17:59;7.90;;;3.17;;
17283;SDS011;8760;52.248;20.952;2023-05-27T07:20:27;4.15;;;2.05;;
17283;SDS011;8760;52.248;20.952;2023-05-27T07:22:54;3.20;;;1.95;;
17283;SDS011;8760;52.248;20.952;2023-05-27T07:25:21;4.32;;;2.35;;
17283;SDS011;8760;52.248;20.952;2023-05-27T07:27:48;3.25;;;1.80;;
17283;SDS011;8760;52.248;20.952;2023-05-27T07:30:14;4.97;;;1.85;;
17283;SDS011;8760;52.248;20.952;2023-05-27T07:32:41;3.83;;;1.63;;
17283;SDS011;8760;52.248;20.952;2023-05-27T07:35:08;5.57;;;2.28;;
17283;SDS011;8760;52.248;20.952;2023-05-27T07:37:37;8.27;;;2.20;;
17283;SDS011;8760;52.248;20.952;2023-05-27T07:40:04;4.70;;;1.90;;
17283;SDS011;8760;52.248;20.952;2023-05-27T07:42:31;3.55;;;1.60;;
17283;SDS011;8760;52.248;20.952;2023-05-27T07:44:58;4.97;;;2.05;;
17283;SDS011;8760;52.248;20.952;2023-05-27T07:47:25;5.47;;;1.67;;
17283;SDS011;8760;52.248;20.952;2023-05-27T07:49:52;4.43;;;1.63;;
17283;SDS011;8760;52.248;20.952;2023-05-27T07:52:19;4.18;;;1.60;;
17283;SDS011;8760;52.248;20.952;2023-05-27T07:54:47;3.85;;;1.50;;
17283;SDS011;8760;52.248;20.952;2023-05-27T07:57:14;2.22;;;1.45;;
17283;SDS011;8760;52.248;20.952;2023-05-27T07:59:41;3.28;;;1.67;;
17283;SDS011;8760;52.248;20.952;2023-05-27T08:02:08;4.85;;;1.70;;
17283;SDS011;8760;52.248;20.952;2023-05-27T08:04:35;3.42;;;1.50;;
17283;SDS011;8760;52.248;20.952;2023-05-27T08:07:02;3.72;;;1.40;;
17283;SDS011;8760;52.248;20.952;2023-05-27T08:09:29;4.78;;;1.70;;
17283;SDS011;8760;52.248;20.952;2023-05-27T08:11:58;4.30;;;1.63;;
17283;SDS011;8760;52.248;20.952;2023-05-27T08:14:25;4.03;;;1.73;;
17283;SDS011;8760;52.248;20.952;2023-05-27T08:16:53;5.13;;;1.60;;
17283;SDS011;8760;52.248;20.952;2023-05-27T08:19:20;4.68;;;1.42;;
17283;SDS011;8760;52.248;20.952;2023-05-27T08:21:47;4.57;;;1.60;;
17283;SDS011;8760;52.248;20.952;2023-05-27T08:24:14;4.38;;;1.60;;
17283;SDS011;8760;52.248;20.952;2023-05-27T08:26:41;4.80;;;1.73;;
17283;SDS011;8760;52.248;20.952;2023-05-27T08:29:09;3.25;;;1.77;;
17283;SDS011;8760;52.248;20.952;2023-05-27T08:31:36;2.55;;;1.40;;
17283;SDS011;8760;52.248;20.952;2023-05-27T08:34:03;4.53;;;1.40;;
17283;SDS011;8760;52.248;20.952;2023-05-27T08:36:30;3.63;;;1.65;;
17283;SDS011;8760;52.248;20.952;2023-05-27T08:38:58;3.47;;;1.30;;
17283;SDS011;8760;52.248;20.952;2023-05-27T08:41:25;2.35;;;1.30;;
17283;SDS011;8760;52.248;20.952;2023-05-27T08:43:53;2.95;;;1.52;;
17283;SDS011;8760;52.248;20.952;2023-05-27T08:46:22;3.45;;;1.50;;
17283;SDS011;8760;52.248;20.952;2023-05-27T08:48:49;2.35;;;1.58;;
17283;SDS011;8760;52.248;20.952;2023-05-27T08:51:20;3.67;;;1.27;;
17283;SDS011;8760;52.248;20.952;2023-05-27T08:53:48;3.60;;;1.40;;
17283;SDS011;8760;52.248;20.952;2023-05-27T08:56:15;4.85;;;1.55;;
17283;SDS011;8760;52.248;20.952;2023-05-27T08:58:46;3.38;;;1.40;;
17283;SDS011;8760;52.248;20.952;2023-05-27T09:01:15;2.65;;;1.30;;
17283;SDS011;8760;52.248;20.952;2023-05-27T09:03:45;2.47;;;1.20;;
17283;SDS011;8760;52.248;20.952;2023-05-27T09:06:11;5.10;;;1.40;;
17283;SDS011;8760;52.248;20.952;2023-05-27T09:08:38;3.28;;;1.27;;
17283;SDS011;8760;52.248;20.952;2023-05-27T09:11:05;1.88;;;1.30;;
17283;SDS011;8760;52.248;20.952;2023-05-27T09:13:33;1.65;;;1.10;;
17283;SDS011;8760;52.248;20.952;2023-05-27T09:16:01;2.05;;;1.40;;
17283;SDS011;8760;52.248;20.952;2023-05-27T09:18:31;5.28;;;1.50;;
17283;SDS011;8760;52.248;20.952;2023-05-27T09:21:00;1.17;;;1.08;;
17283;SDS011;8760;52.248;20.952;2023-05-27T09:23:28;4.00;;;1.10;;
17283;SDS011;8760;52.248;20.952;2023-05-27T09:25:55;1.65;;;1.23;;
17283;SDS011;8760;52.248;20.952;2023-05-27T09:28:23;1.63;;;1.10;;
17283;SDS011;8760;52.248;20.952;2023-05-27T09:30:51;3.22;;;1.20;;
17283;SDS011;8760;52.248;20.952;2023-05-27T09:33:25;2.25;;;1.20;;
17283;SDS011;8760;52.248;20.952;2023-05-27T09:35:53;3.50;;;1.25;;
17283;SDS011;8760;52.248;20.952;2023-05-27T09:38:22;6.47;;;1.40;;
17283;SDS011;8760;52.248;20.952;2023-05-27T09:40:48;2.47;;;1.10;;
17283;SDS011;8760;52.248;20.952;2023-05-27T09:43:15;5.13;;;1.17;;
17283;SDS011;8760;52.248;20.952;2023-05-27T09:45:42;3.55;;;1.23;;
17283;SDS011;8760;52.248;20.952;2023-05-27T09:48:11;2.30;;;1.42;;
17283;SDS011;8760;52.248;20.952;2023-05-27T09:50:39;3.05;;;1.15;;
17283;SDS011;8760;52.248;20.952;2023-05-27T09:53:07;1.45;;;1.15;;
17283;SDS011;8760;52.248;20.952;2023-05-27T09:55:36;2.15;;;1.23;;
17283;SDS011;8760;52.248;20.952;2023-05-27T09:58:02;4.28;;;1.10;;
17283;SDS011;8760;52.248;20.952;2023-05-27T10:00:29;3.50;;;1.05;;
17283;SDS011;8760;52.248;20.952;2023-05-27T10:02:59;1.10;;;1.00;;
17283;SDS011;8760;52.248;20.952;2023-05-27T10:05:27;2.45;;;1.08;;
17283;SDS011;8760;52.248;20.952;2023-05-27T10:07:55;2.17;;;1.30;;
17283;SDS011;8760;52.248;20.952;2023-05-27T10:10:23;5.88;;;1.40;;
17283;SDS011;8760;52.248;20.952;2023-05-27T10:12:52;1.77;;;1.17;;
17283;SDS011;8760;52.248;20.952;2023-05-27T10:15:21;2.88;;;1.40;;
17283;SDS011;8760;52.248;20.952;2023-05-27T10:17:52;4.47;;;1.20;;
17283;SDS011;8760;52.248;20.952;2023-05-27T10:20:24;1.35;;;1.10;;
17283;SDS011;8760;52.248;20.952;2023-05-27T10:22:53;1.67;;;1.05;;
17283;SDS011;8760;52.248;20.952;2023-05-27T10:25:21;2.92;;;1.50;;
17283;SDS011;8760;52.248;20.952;2023-05-27T10:27:49;7.07;;;1.30;;
17283;SDS011;8760;52.248;20.952;2023-05-27T10:30:17;1.65;;;1.35;;
17283;SDS011;8760;52.248;20.952;2023-05-27T10:32:46;2.35;;;1.30;;
17283;SDS011;8760;52.248;20.952;2023-05-27T10:35:15;4.13;;;1.40;;
17283;SDS011;8760;52.248;20.952;2023-05-27T10:37:42;1.55;;;1.00;;
17283;SDS011;8760;52.248;20.952;2023-05-27T10:40:09;4.38;;;1.90;;
17283;SDS011;8760;52.248;20.952;2023-05-27T10:42:37;3.25;;;2.53;;
17283;SDS011;8760;52.248;20.952;2023-05-27T10:45:05;5.63;;;1.40;;
17283;SDS011;8760;52.248;20.952;2023-05-27T10:47:38;2.63;;;1.30;;
17283;SDS011;8760;52.248;20.952;2023-05-27T10:50:11;3.05;;;1.48;;
17283;SDS011;8760;52.248;20.952;2023-05-27T10:52:40;5.32;;;1.52;;
17283;SDS011;8760;52.248;20.952;2023-05-27T10:55:08;1.50;;;1.17;;
17283;SDS011;8760;52.248;20.952;2023-05-27T10:57:35;2.10;;;1.27;;
17283;SDS011;8760;52.248;20.952;2023-05-27T11:00:02;2.33;;;1.42;;
17283;SDS011;8760;52.248;20.952;2023-05-27T11:02:34;1.20;;;1.10;;
17283;SDS011;8760;52.248;20.952;2023-05-27T11:05:10;2.53;;;1.40;;
17283;SDS011;8760;52.248;20.952;2023-05-27T11:07:40;3.90;;;1.55;;
17283;SDS011;8760;52.248;20.952;2023-05-27T11:10:07;4.07;;;1.70;;
17283;SDS011;8760;52.248;20.952;2023-05-27T11:12:35;2.10;;;1.10;;
17283;SDS011;8760;52.248;20.952;2023-05-27T11:15:02;2.20;;;1.98;;
17283;SDS011;8760;52.248;20.952;2023-05-27T11:17:30;3.45;;;1.65;;
17283;SDS011;8760;52.248;20.952;2023-05-27T11:19:57;3.92;;;1.40;;
17283;SDS011;8760;52.248;20.952;2023-05-27T11:22:25;3.83;;;1.58;;
17283;SDS011;8760;52.248;20.952;2023-05-27T11:24:55;4.28;;;1.40;;
17283;SDS011;8760;52.248;20.952;2023-05-27T11:27:23;3.55;;;2.05;;
17283;SDS011;8760;52.248;20.952;2023-05-27T11:29:51;3.05;;;1.70;;
17283;SDS011;8760;52.248;20.952;2023-05-27T11:32:19;3.20;;;1.25;;
17283;SDS011;8760;52.248;20.952;2023-05-27T11:34:46;2.25;;;1.20;;
17283;SDS011;8760;52.248;20.952;2023-05-27T11:37:13;2.85;;;1.08;;
17283;SDS011;8760;52.248;20.952;2023-05-27T11:39:50;2.55;;;1.30;;
17283;SDS011;8760;52.248;20.952;2023-05-27T11:42:20;2.25;;;1.17;;
17283;SDS011;8760;52.248;20.952;2023-05-27T11:44:49;2.08;;;1.13;;
17283;SDS011;8760;52.248;20.952;2023-05-27T11:47:17;2.30;;;1.13;;
17283;SDS011;8760;52.248;20.952;2023-05-27T11:49:44;3.55;;;1.27;;
17283;SDS011;8760;52.248;20.952;2023-05-27T11:52:12;1.55;;;1.30;;
17283;SDS011;8760;52.248;20.952;2023-05-27T11:54:40;3.60;;;1.73;;
17283;SDS011;8760;52.248;20.952;2023-05-27T11:57:08;1.60;;;1.20;;
17283;SDS011;8760;52.248;20.952;2023-05-27T11:59:35;3.05;;;1.10;;
17283;SDS011;8760;52.248;20.952;2023-05-27T12:02:03;2.10;;;1.27;;
17283;SDS011;8760;52.248;20.952;2023-05-27T12:04:30;3.42;;;1.20;;
17283;SDS011;8760;52.248;20.952;2023-05-27T12:06:57;6.13;;;1.35;;
17283;SDS011;8760;52.248;20.952;2023-05-27T12:09:25;6.03;;;1.08;;
17283;SDS011;8760;52.248;20.952;2023-05-27T12:11:52;1.85;;;1.25;;
17283;SDS011;8760;52.248;20.952;2023-05-27T12:14:21;4.53;;;1.15;;
17283;SDS011;8760;52.248;20.952;2023-05-27T12:16:48;3.42;;;1.30;;
17283;SDS011;8760;52.248;20.952;2023-05-27T12:19:15;1.90;;;1.30;;
17283;SDS011;8760;52.248;20.952;2023-05-27T12:21:42;2.92;;;1.80;;
17283;SDS011;8760;52.248;20.952;2023-05-27T12:24:09;3.28;;;1.20;;
17283;SDS011;8760;52.248;20.952;2023-05-27T12:26:36;3.53;;;0.90;;
17283;SDS011;8760;52.248;20.952;2023-05-27T12:29:05;1.83;;;1.27;;
17283;SDS011;8760;52.248;20.952;2023-05-27T12:31:34;3.17;;;1.38;;
17283;SDS011;8760;52.248;20.952;2023-05-27T12:34:01;3.20;;;1.40;;
17283;SDS011;8760;52.248;20.952;2023-05-27T12:36:28;4.72;;;2.10;;
17283;SDS011;8760;52.248;20.952;2023-05-27T12:38:55;3.53;;;1.48;;
17283;SDS011;8760;52.248;20.952;2023-05-27T12:41:21;3.20;;;1.65;;
17283;SDS011;8760;52.248;20.952;2023-05-27T12:43:48;3.60;;;1.52;;
17283;SDS011;8760;52.248;20.952;2023-05-27T12:46:15;2.08;;;1.15;;
17283;SDS011;8760;52.248;20.952;2023-05-27T12:48:43;3.83;;;1.73;;
17283;SDS011;8760;52.248;20.952;2023-05-27T12:51:10;2.13;;;1.13;;
17283;SDS011;8760;52.248;20.952;2023-05-27T12:53:37;2.22;;;1.27;;
17283;SDS011;8760;52.248;20.952;2023-05-27T12:56:04;5.43;;;2.10;;
17283;SDS011;8760;52.248;20.952;2023-05-27T12:58:32;8.65;;;1.88;;
17283;SDS011;8760;52.248;20.952;2023-05-27T13:00:59;5.05;;;1.40;;
17283;SDS011;8760;52.248;20.952;2023-05-27T13:03:26;2.63;;;1.42;;
17283;SDS011;8760;52.248;20.952;2023-05-27T13:05:54;4.85;;;1.10;;
17283;SDS011;8760;52.248;20.952;2023-05-27T13:08:21;2.67;;;1.20;;
17283;SDS011;8760;52.248;20.952;2023-05-27T13:10:48;2.97;;;1.23;;
17283;SDS011;8760;52.248;20.952;2023-05-27T13:13:15;1.98;;;1.33;;
17283;SDS011;8760;52.248;20.952;2023-05-27T13:15:42;3.03;;;1.10;;
17283;SDS011;8760;52.248;20.952;2023-05-27T13:18:09;3.05;;;1.27;;
17283;SDS011;8760;52.248;20.952;2023-05-27T13:20:35;3.72;;;1.25;;
17283;SDS011;8760;52.248;20.952;2023-05-27T13:23:04;6.20;;;1.33;;
17283;SDS011;8760;52.248;20.952;2023-05-27T13:25:31;1.80;;;1.10;;
17283;SDS011;8760;52.248;20.952;2023-05-27T13:27:58;2.50;;;1.40;;
17283;SDS011;8760;52.248;20.952;2023-05-27T13:30:26;2.75;;;1.00;;
17283;SDS011;8760;52.248;20.952;2023-05-27T13:32:53;3.78;;;1.35;;
17283;SDS011;8760;52.248;20.952;2023-05-27T13:35:21;3.97;;;1.27;;
17283;SDS011;8760;52.248;20.952;2023-05-27T13:37:48;3.85;;;1.75;;
17283;SDS011;8760;52.248;20.952;2023-05-27T13:40:16;6.22;;;1.20;;
17283;SDS011;8760;52.248;20.952;2023-05-27T13:42:43;8.00;;;1.60;;
17283;SDS011;8760;52.248;20.952;2023-05-27T13:45:10;3.97;;;1.35;;
17283;SDS011;8760;52.248;20.952;2023-05-27T13:47:37;1.95;;;1.00;;
17283;SDS011;8760;52.248;20.952;2023-05-27T13:50:07;2.92;;;1.27;;
17283;SDS011;8760;52.248;20.952;2023-05-27T13:52:35;4.93;;;1.20;;
17283;SDS011;8760;52.248;20.952;2023-05-27T13:55:02;1.50;;;1.10;;
17283;SDS011;8760;52.248;20.952;2023-05-27T13:57:30;2.40;;;1.25;;
17283;SDS011;8760;52.248;20.952;2023-05-27T13:59:57;3.88;;;1.30;;
17283;SDS011;8760;52.248;20.952;2023-05-27T14:02:24;4.53;;;1.58;;
17283;SDS011;8760;52.248;20.952;2023-05-27T14:04:51;3.38;;;1.30;;
17283;SDS011;8760;52.248;20.952;2023-05-27T14:07:18;4.47;;;1.05;;
17283;SDS011;8760;52.248;20.952;2023-05-27T14:09:45;5.45;;;1.20;;
17283;SDS011;8760;52.248;20.952;2023-05-27T14:12:12;3.67;;;1.10;;
17283;SDS011;8760;52.248;20.952;2023-05-27T14:14:41;2.50;;;1.10;;
17283;SDS011;8760;52.248;20.952;2023-05-27T14:17:07;2.05;;;1.08;;
17283;SDS011;8760;52.248;20.952;2023-05-27T14:19:34;2.05;;;1.10;;
17283;SDS011;8760;52.248;20.952;2023-05-27T14:22:01;4.20;;;1.30;;
17283;SDS011;8760;52.248;20.952;2023-05-27T14:24:28;5.05;;;1.27;;
17283;SDS011;8760;52.248;20.952;2023-05-27T14:26:56;3.63;;;1.25;;
17283;SDS011;8760;52.248;20.952;2023-05-27T14:29:23;7.47;;;1.77;;
17283;SDS011;8760;52.248;20.952;2023-05-27T14:31:53;2.50;;;1.30;;
17283;SDS011;8760;52.248;20.952;2023-05-27T14:34:19;3.42;;;1.50;;
17283;SDS011;8760;52.248;20.952;2023-05-27T14:36:46;4.43;;;1.40;;
17283;SDS011;8760;52.248;20.952;2023-05-27T14:39:13;2.05;;;1.38;;
17283;SDS011;8760;52.248;20.952;2023-05-27T14:41:40;5.40;;;1.40;;
17283;SDS011;8760;52.248;20.952;2023-05-27T14:44:07;2.35;;;1.27;;
17283;SDS011;8760;52.248;20.952;2023-05-27T14:46:34;7.82;;;1.90;;
17283;SDS011;8760;52.248;20.952;2023-05-27T14:49:03;3.13;;;1.70;;